sensor_id;sensor_type;location;lat;lon;timestamp;pressure;altitude;pressure_sealevel;temperature;humidity
38630;BME280;24384;51.988;4.644;2023-01-26T00:01:22;102675.25;;;-0.84;93.74
38630;BME280;24384;51.988;4.644;2023-01-26T00:03:48;102674.63;;;-0.78;93.74
38630;BME280;24384;51.988;4.644;2023-01-26T00:06:16;102679.16;;;-0.74;93.76
38630;BME280;24384;51.988;4.644;2023-01-26T00:08:45;102672.44;;;-0.69;93.70
38630;BME280;24384;51.988;4.644;2023-01-26T00:11:13;102675.66;;;-0.75;93.50
38630;BME280;24384;51.988;4.644;2023-01-26T00:13:39;102668.44;;;-0.82;93.68
38630;BME280;24384;51.988;4.644;2023-01-26T00:16:09;102671.63;;;-0.68;93.56
38630;BME280;24384;51.988;4.644;2023-01-26T00:18:36;102680.28;;;-0.67;93.53
38630;BME280;24384;51.988;4.644;2023-01-26T00:21:02;102662.13;;;-0.67;93.35
38630;BME280;24384;51.988;4.644;2023-01-26T00:23:29;102666.78;;;-0.60;93.26
38630;BME280;24384;51.988;4.644;2023-01-26T00:25:54;102675.34;;;-0.61;93.27
38630;BME280;24384;51.988;4.644;2023-01-26T00:28:20;102663.47;;;-0.56;93.34
38630;BME280;24384;51.988;4.644;2023-01-26T00:30:45;102672.22;;;-0.54;92.64
38630;BME280;24384;51.988;4.644;2023-01-26T00:33:11;102663.03;;;-0.46;93.24
38630;BME280;24384;51.988;4.644;2023-01-26T00:35:36;102667.41;;;-0.45;92.75
38630;BME280;24384;51.988;4.644;2023-01-26T00:38:01;102669.03;;;-0.47;92.44
38630;BME280;24384;51.988;4.644;2023-01-26T00:40:27;102663.59;;;-0.53;92.28
38630;BME280;24384;51.988;4.644;2023-01-26T00:42:52;102661.84;;;-0.54;93.02
38630;BME280;24384;51.988;4.644;2023-01-26T00:45:19;102653.81;;;-0.60;92.75
38630;BME280;24384;51.988;4.644;2023-01-26T00:47:44;102652.59;;;-0.68;92.59
38630;BME280;24384;51.988;4.644;2023-01-26T00:50:10;102651.91;;;-0.64;93.28
38630;BME280;24384;51.988;4.644;2023-01-26T00:52:35;102648.69;;;-0.59;93.06
38630;BME280;24384;51.988;4.644;2023-01-26T00:55:00;102648.63;;;-0.60;92.93
38630;BME280;24384;51.988;4.644;2023-01-26T00:57:26;102646.03;;;-0.60;92.56
38630;BME280;24384;51.988;4.644;2023-01-26T00:59:51;102652.34;;;-0.53;92.96
38630;BME280;24384;51.988;4.644;2023-01-26T01:02:16;102643.81;;;-0.51;92.54
38630;BME280;24384;51.988;4.644;2023-01-26T01:04:41;102635.03;;;-0.55;92.82
38630;BME280;24384;51.988;4.644;2023-01-26T01:07:07;102632.44;;;-0.55;92.64
38630;BME280;24384;51.988;4.644;2023-01-26T01:09:34;102634.00;;;-0.58;92.81
38630;BME280;24384;51.988;4.644;2023-01-26T01:12:00;102630.63;;;-0.57;92.58
38630;BME280;24384;51.988;4.644;2023-01-26T01:14:25;102619.09;;;-0.64;92.80
38630;BME280;24384;51.988;4.644;2023-01-26T01:16:50;102624.41;;;-0.61;92.89
38630;BME280;24384;51.988;4.644;2023-01-26T01:19:17;102617.59;;;-0.59;92.62
38630;BME280;24384;51.988;4.644;2023-01-26T01:21:43;102618.47;;;-0.58;93.10
38630;BME280;24384;51.988;4.644;2023-01-26T01:24:10;102618.16;;;-0.66;93.40
38630;BME280;24384;51.988;4.644;2023-01-26T01:26:37;102611.91;;;-0.71;93.29
38630;BME280;24384;51.988;4.644;2023-01-26T01:29:03;102614.81;;;-0.63;93.38
38630;BME280;24384;51.988;4.644;2023-01-26T01:31:28;102617.41;;;-0.63;93.19
38630;BME280;24384;51.988;4.644;2023-01-26T01:33:57;102619.41;;;-0.56;92.74
38630;BME280;24384;51.988;4.644;2023-01-26T01:36:22;102610.56;;;-0.61;92.99
38630;BME280;24384;51.988;4.644;2023-01-26T01:38:48;102622.66;;;-0.62;93.63
38630;BME280;24384;51.988;4.644;2023-01-26T01:41:17;102615.94;;;-0.57;92.81
38630;BME280;24384;51.988;4.644;2023-01-26T01:43:42;102606.00;;;-0.67;93.20
38630;BME280;24384;51.988;4.644;2023-01-26T01:49:01;102616.63;;;-0.61;93.37
38630;BME280;24384;51.988;4.644;2023-01-26T01:51:35;102617.59;;;-0.59;93.37
38630;BME280;24384;51.988;4.644;2023-01-26T01:54:07;102622.13;;;-0.53;93.24
38630;BME280;24384;51.988;4.644;2023-01-26T01:56:35;102615.19;;;-0.54;92.95
38630;BME280;24384;51.988;4.644;2023-01-26T01:59:05;102624.66;;;-0.55;93.23
38630;BME280;24384;51.988;4.644;2023-01-26T02:01:32;102625.44;;;-0.57;93.53
38630;BME280;24384;51.988;4.644;2023-01-26T02:03:59;102619.41;;;-0.56;93.71
38630;BME280;24384;51.988;4.644;2023-01-26T02:06:51;102612.47;;;-0.57;93.97
38630;BME280;24384;51.988;4.644;2023-01-26T02:09:20;102616.69;;;-0.59;94.28
38630;BME280;24384;51.988;4.644;2023-01-26T02:12:07;102615.25;;;-0.52;94.11
38630;BME280;24384;51.988;4.644;2023-01-26T02:14:35;102618.91;;;-0.47;93.71
38630;BME280;24384;51.988;4.644;2023-01-26T02:17:00;102610.25;;;-0.48;93.49
38630;BME280;24384;51.988;4.644;2023-01-26T02:25:09;102615.88;;;-0.37;93.02
38630;BME280;24384;51.988;4.644;2023-01-26T02:27:36;102615.16;;;-0.33;93.39
38630;BME280;24384;51.988;4.644;2023-01-26T02:30:02;102611.13;;;-0.26;93.07
38630;BME280;24384;51.988;4.644;2023-01-26T02:32:28;102609.72;;;-0.39;93.32
38630;BME280;24384;51.988;4.644;2023-01-26T02:34:55;102605.44;;;-0.39;93.68
38630;BME280;24384;51.988;4.644;2023-01-26T02:37:21;102605.03;;;-0.27;93.58
38630;BME280;24384;51.988;4.644;2023-01-26T02:39:55;102610.47;;;-0.21;93.49
38630;BME280;24384;51.988;4.644;2023-01-26T02:42:22;102609.72;;;-0.18;93.14
38630;BME280;24384;51.988;4.644;2023-01-26T02:45:04;102613.28;;;-0.14;92.97
38630;BME280;24384;51.988;4.644;2023-01-26T02:47:30;102613.28;;;-0.14;93.42
38630;BME280;24384;51.988;4.644;2023-01-26T02:49:55;102610.94;;;-0.08;93.15
38630;BME280;24384;51.988;4.644;2023-01-26T02:52:24;102622.34;;;-0.05;93.00
38630;BME280;24384;51.988;4.644;2023-01-26T02:54:51;102619.09;;;0.01;93.34
38630;BME280;24384;51.988;4.644;2023-01-26T02:57:35;102622.66;;;0.05;92.92
38630;BME280;24384;51.988;4.644;2023-01-26T03:00:03;102623.03;;;0.14;93.11
38630;BME280;24384;51.988;4.644;2023-01-26T03:02:28;102617.97;;;0.17;92.59
38630;BME280;24384;51.988;4.644;2023-01-26T03:04:54;102620.50;;;0.15;92.39
38630;BME280;24384;51.988;4.644;2023-01-26T03:07:19;102624.88;;;0.16;92.12
38630;BME280;24384;51.988;4.644;2023-01-26T03:09:44;102620.50;;;0.15;92.71
38630;BME280;24384;51.988;4.644;2023-01-26T03:12:10;102619.22;;;0.27;92.44
38630;BME280;24384;51.988;4.644;2023-01-26T03:14:35;102619.16;;;0.25;92.46
38630;BME280;24384;51.988;4.644;2023-01-26T03:17:00;102622.03;;;0.33;92.61
38630;BME280;24384;51.988;4.644;2023-01-26T03:19:26;102623.84;;;0.35;92.71
38630;BME280;24384;51.988;4.644;2023-01-26T03:22:10;102621.88;;;0.28;92.26
38630;BME280;24384;51.988;4.644;2023-01-26T03:24:54;102615.13;;;0.33;92.47
38630;BME280;24384;51.988;4.644;2023-01-26T03:27:42;102616.56;;;0.25;92.25
38630;BME280;24384;51.988;4.644;2023-01-26T03:30:09;102621.03;;;0.29;92.56
38630;BME280;24384;51.988;4.644;2023-01-26T03:32:34;102620.91;;;0.26;92.39
38630;BME280;24384;51.988;4.644;2023-01-26T03:35:00;102603.41;;;0.21;91.87
38630;BME280;24384;51.988;4.644;2023-01-26T03:37:25;102612.00;;;0.20;91.99
38630;BME280;24384;51.988;4.644;2023-01-26T03:39:51;102608.94;;;0.30;92.29
38630;BME280;24384;51.988;4.644;2023-01-26T03:42:36;102611.72;;;0.34;92.18
38630;BME280;24384;51.988;4.644;2023-01-26T03:45:20;102613.81;;;0.45;91.99
38630;BME280;24384;51.988;4.644;2023-01-26T03:48:13;102619.06;;;0.46;91.56
38630;BME280;24384;51.988;4.644;2023-01-26T03:50:58;102611.25;;;0.46;92.07
38630;BME280;24384;51.988;4.644;2023-01-26T03:53:42;102613.22;;;0.52;91.47
38630;BME280;24384;51.988;4.644;2023-01-26T03:56:27;102614.88;;;0.50;91.66
38630;BME280;24384;51.988;4.644;2023-01-26T03:59:01;102611.81;;;0.62;91.71
38630;BME280;24384;51.988;4.644;2023-01-26T04:01:39;102611.59;;;0.56;92.13
38630;BME280;24384;51.988;4.644;2023-01-26T04:04:05;102603.88;;;0.57;91.84
38630;BME280;24384;51.988;4.644;2023-01-26T04:06:50;102605.00;;;0.64;92.16
38630;BME280;24384;51.988;4.644;2023-01-26T04:09:34;102606.53;;;0.59;92.10
38630;BME280;24384;51.988;4.644;2023-01-26T04:12:06;102604.03;;;0.62;92.19
38630;BME280;24384;51.988;4.644;2023-01-26T04:14:34;102613.56;;;0.61;92.02
38630;BME280;24384;51.988;4.644;2023-01-26T04:17:18;102601.72;;;0.69;91.90
38630;BME280;24384;51.988;4.644;2023-01-26T04:20:04;102609.63;;;0.73;91.48
38630;BME280;24384;51.988;4.644;2023-01-26T04:22:48;102616.69;;;0.77;91.04
38630;BME280;24384;51.988;4.644;2023-01-26T04:25:16;102616.81;;;0.80;91.05
38630;BME280;24384;51.988;4.644;2023-01-26T04:27:42;102623.69;;;0.78;90.85
38630;BME280;24384;51.988;4.644;2023-01-26T04:30:10;102612.09;;;0.69;90.86
38630;BME280;24384;51.988;4.644;2023-01-26T04:32:36;102624.50;;;0.77;91.11
38630;BME280;24384;51.988;4.644;2023-01-26T04:35:03;102613.88;;;0.70;91.86
38630;BME280;24384;51.988;4.644;2023-01-26T04:37:28;102615.25;;;0.85;91.35
38630;BME280;24384;51.988;4.644;2023-01-26T04:39:53;102615.47;;;0.91;91.33
38630;BME280;24384;51.988;4.644;2023-01-26T04:42:19;102617.84;;;0.85;91.38
38630;BME280;24384;51.988;4.644;2023-01-26T04:44:44;102625.84;;;0.91;91.09
38630;BME280;24384;51.988;4.644;2023-01-26T04:47:09;102618.69;;;0.84;90.73
38630;BME280;24384;51.988;4.644;2023-01-26T04:49:34;102605.06;;;0.91;91.17
38630;BME280;24384;51.988;4.644;2023-01-26T04:52:00;102605.81;;;0.87;91.37
38630;BME280;24384;51.988;4.644;2023-01-26T04:54:25;102608.63;;;0.93;91.43
38630;BME280;24384;51.988;4.644;2023-01-26T04:56:50;102595.84;;;0.99;91.32
38630;BME280;24384;51.988;4.644;2023-01-26T04:59:16;102594.19;;;1.01;90.73
38630;BME280;24384;51.988;4.644;2023-01-26T05:01:41;102596.56;;;0.95;90.93
38630;BME280;24384;51.988;4.644;2023-01-26T05:04:08;102600.63;;;0.87;91.31
38630;BME280;24384;51.988;4.644;2023-01-26T05:06:34;102602.63;;;0.96;91.31
38630;BME280;24384;51.988;4.644;2023-01-26T05:08:59;102602.59;;;0.94;91.20
38630;BME280;24384;51.988;4.644;2023-01-26T05:11:25;102606.97;;;0.95;91.09
38630;BME280;24384;51.988;4.644;2023-01-26T05:13:51;102609.44;;;0.92;91.54
38630;BME280;24384;51.988;4.644;2023-01-26T05:16:16;102610.44;;;0.96;91.66
38630;BME280;24384;51.988;4.644;2023-01-26T05:18:42;102607.19;;;1.01;91.20
38630;BME280;24384;51.988;4.644;2023-01-26T05:21:09;102605.66;;;1.08;90.96
38630;BME280;24384;51.988;4.644;2023-01-26T05:23:34;102605.66;;;1.08;91.25
38630;BME280;24384;51.988;4.644;2023-01-26T05:26:00;102602.97;;;1.05;91.46
38630;BME280;24384;51.988;4.644;2023-01-26T05:28:25;102618.56;;;1.05;91.51
38630;BME280;24384;51.988;4.644;2023-01-26T05:30:50;102612.69;;;1.11;91.70
38630;BME280;24384;51.988;4.644;2023-01-26T05:33:16;102611.13;;;1.16;91.41
38630;BME280;24384;51.988;4.644;2023-01-26T05:35:46;102606.84;;;1.16;91.65
38630;BME280;24384;51.988;4.644;2023-01-26T05:38:11;102606.94;;;1.19;91.32
38630;BME280;24384;51.988;4.644;2023-01-26T05:40:36;102616.31;;;1.16;92.08
38630;BME280;24384;51.988;4.644;2023-01-26T05:43:02;102614.72;;;1.19;91.79
38630;BME280;24384;51.988;4.644;2023-01-26T05:45:27;102615.09;;;1.30;91.39
38630;BME280;24384;51.988;4.644;2023-01-26T05:47:52;102615.25;;;1.35;91.05
38630;BME280;24384;51.988;4.644;2023-01-26T05:50:18;102620.50;;;1.36;91.45
38630;BME280;24384;51.988;4.644;2023-01-26T05:52:43;102623.00;;;1.33;91.19
38630;BME280;24384;51.988;4.644;2023-01-26T05:55:11;102616.06;;;1.34;91.24
38630;BME280;24384;51.988;4.644;2023-01-26T05:57:36;102618.72;;;1.35;91.29
38630;BME280;24384;51.988;4.644;2023-01-26T06:00:06;102624.63;;;1.31;91.62
38630;BME280;24384;51.988;4.644;2023-01-26T06:02:31;102622.25;;;1.37;91.04
38630;BME280;24384;51.988;4.644;2023-01-26T06:04:56;102619.03;;;1.45;90.85
38630;BME280;24384;51.988;4.644;2023-01-26T06:07:22;102621.63;;;1.45;91.06
38630;BME280;24384;51.988;4.644;2023-01-26T06:09:47;102622.66;;;1.50;91.46
38630;BME280;24384;51.988;4.644;2023-01-26T06:12:17;102622.94;;;1.59;90.95
38630;BME280;24384;51.988;4.644;2023-01-26T06:14:43;102622.94;;;1.59;91.12
38630;BME280;24384;51.988;4.644;2023-01-26T06:17:08;102629.00;;;1.58;90.91
38630;BME280;24384;51.988;4.644;2023-01-26T06:19:33;102628.84;;;1.53;90.93
38630;BME280;24384;51.988;4.644;2023-01-26T06:22:00;102627.03;;;1.51;91.44
38630;BME280;24384;51.988;4.644;2023-01-26T06:24:25;102631.25;;;1.47;91.41
38630;BME280;24384;51.988;4.644;2023-01-26T06:26:51;102632.19;;;1.49;91.32
38630;BME280;24384;51.988;4.644;2023-01-26T06:29:16;102629.94;;;1.60;91.38
38630;BME280;24384;51.988;4.644;2023-01-26T06:31:41;102630.66;;;1.56;91.42
38630;BME280;24384;51.988;4.644;2023-01-26T06:34:07;102631.50;;;1.55;91.31
38630;BME280;24384;51.988;4.644;2023-01-26T06:36:33;102638.59;;;1.60;91.54
38630;BME280;24384;51.988;4.644;2023-01-26T06:38:58;102648.25;;;1.63;91.72
38630;BME280;24384;51.988;4.644;2023-01-26T06:41:24;102637.16;;;1.69;91.15
38630;BME280;24384;51.988;4.644;2023-01-26T06:43:49;102644.13;;;1.70;91.27
38630;BME280;24384;51.988;4.644;2023-01-26T06:46:16;102647.91;;;1.79;91.66
38630;BME280;24384;51.988;4.644;2023-01-26T06:48:42;102653.31;;;1.86;91.21
38630;BME280;24384;51.988;4.644;2023-01-26T06:53:52;102653.22;;;1.83;91.41
38630;BME280;24384;51.988;4.644;2023-01-26T06:56:17;102659.53;;;1.91;91.56
38630;BME280;24384;51.988;4.644;2023-01-26T06:58:43;102656.13;;;1.92;91.61
38630;BME280;24384;51.988;4.644;2023-01-26T07:01:12;102653.72;;;1.98;91.35
38630;BME280;24384;51.988;4.644;2023-01-26T07:03:39;102667.63;;;2.00;91.47
38630;BME280;24384;51.988;4.644;2023-01-26T07:06:04;102665.81;;;1.97;91.80
38630;BME280;24384;51.988;4.644;2023-01-26T07:08:32;102669.38;;;2.00;91.46
38630;BME280;24384;51.988;4.644;2023-01-26T07:10:57;102670.34;;;2.03;91.10
38630;BME280;24384;51.988;4.644;2023-01-26T07:13:22;102665.03;;;2.00;91.86
38630;BME280;24384;51.988;4.644;2023-01-26T07:15:47;102673.56;;;1.96;91.56
38630;BME280;24384;51.988;4.644;2023-01-26T07:18:13;102671.13;;;2.01;92.11
38630;BME280;24384;51.988;4.644;2023-01-26T07:20:38;102669.50;;;2.04;92.25
38630;BME280;24384;51.988;4.644;2023-01-26T07:23:03;102671.66;;;2.18;91.71
38630;BME280;24384;51.988;4.644;2023-01-26T07:25:28;102682.91;;;2.17;91.92
38630;BME280;24384;51.988;4.644;2023-01-26T07:27:55;102688.16;;;2.18;92.01
38630;BME280;24384;51.988;4.644;2023-01-26T07:30:21;102679.59;;;2.22;92.47
38630;BME280;24384;51.988;4.644;2023-01-26T07:32:46;102678.31;;;2.37;92.62
38630;BME280;24384;51.988;4.644;2023-01-26T07:35:12;102682.72;;;2.39;92.56
38630;BME280;24384;51.988;4.644;2023-01-26T07:37:37;102686.28;;;2.41;92.20
38630;BME280;24384;51.988;4.644;2023-01-26T07:40:02;102696.69;;;2.41;92.82
38630;BME280;24384;51.988;4.644;2023-01-26T07:42:28;102692.69;;;2.53;92.85
38630;BME280;24384;51.988;4.644;2023-01-26T07:44:54;102692.81;;;2.57;92.92
38630;BME280;24384;51.988;4.644;2023-01-26T07:47:20;102699.94;;;2.63;93.42
38630;BME280;24384;51.988;4.644;2023-01-26T07:49:45;102700.94;;;2.68;93.11
38630;BME280;24384;51.988;4.644;2023-01-26T07:52:11;102700.84;;;2.65;93.31
38630;BME280;24384;51.988;4.644;2023-01-26T07:54:36;102705.59;;;2.78;92.91
38630;BME280;24384;51.988;4.644;2023-01-26T07:57:02;102711.50;;;2.73;93.58
38630;BME280;24384;51.988;4.644;2023-01-26T07:59:31;102711.72;;;2.80;93.28
38630;BME280;24384;51.988;4.644;2023-01-26T08:01:56;102717.19;;;2.90;93.46
38630;BME280;24384;51.988;4.644;2023-01-26T08:04:21;102712.94;;;2.93;93.90
38630;BME280;24384;51.988;4.644;2023-01-26T08:06:46;102721.63;;;2.92;94.16
38630;BME280;24384;51.988;4.644;2023-01-26T08:09:14;102721.81;;;2.98;94.04
38630;BME280;24384;51.988;4.644;2023-01-26T08:11:39;102724.53;;;3.03;94.01
38630;BME280;24384;51.988;4.644;2023-01-26T08:14:05;102716.06;;;3.12;93.98
38630;BME280;24384;51.988;4.644;2023-01-26T08:16:30;102718.78;;;3.15;93.82
38630;BME280;24384;51.988;4.644;2023-01-26T08:18:55;102718.94;;;3.21;93.87
38630;BME280;24384;51.988;4.644;2023-01-26T08:21:20;102717.28;;;3.23;93.88
38630;BME280;24384;51.988;4.644;2023-01-26T08:23:49;102719.06;;;3.26;93.43
38630;BME280;24384;51.988;4.644;2023-01-26T08:26:15;102723.50;;;3.28;93.65
38630;BME280;24384;51.988;4.644;2023-01-26T08:28:42;102718.41;;;3.33;93.66
38630;BME280;24384;51.988;4.644;2023-01-26T08:31:13;102725.22;;;3.28;93.16
38630;BME280;24384;51.988;4.644;2023-01-26T08:33:40;102728.72;;;3.28;93.63
38630;BME280;24384;51.988;4.644;2023-01-26T08:36:08;102728.84;;;3.33;93.45
38630;BME280;24384;51.988;4.644;2023-01-26T08:38:35;102733.38;;;3.40;93.13
38630;BME280;24384;51.988;4.644;2023-01-26T08:41:01;102728.13;;;3.38;92.96
38630;BME280;24384;51.988;4.644;2023-01-26T08:43:26;102733.25;;;3.35;92.97
38630;BME280;24384;51.988;4.644;2023-01-26T08:45:52;102732.44;;;3.38;92.70
38630;BME280;24384;51.988;4.644;2023-01-26T08:48:17;102738.69;;;3.43;92.79
38630;BME280;24384;51.988;4.644;2023-01-26T08:50:43;102740.44;;;3.44;93.20
38630;BME280;24384;51.988;4.644;2023-01-26T08:53:08;102744.91;;;3.48;92.23
38630;BME280;24384;51.988;4.644;2023-01-26T08:55:34;102735.97;;;3.73;92.84
38630;BME280;24384;51.988;4.644;2023-01-26T08:57:59;102738.59;;;4.08;93.19
38630;BME280;24384;51.988;4.644;2023-01-26T09:00:25;102737.59;;;4.79;93.41
38630;BME280;24384;51.988;4.644;2023-01-26T09:02:57;102743.31;;;5.04;89.21
38630;BME280;24384;51.988;4.644;2023-01-26T09:05:23;102734.81;;;5.62;87.08
38630;BME280;24384;51.988;4.644;2023-01-26T09:07:49;102742.75;;;6.15;85.13
38630;BME280;24384;51.988;4.644;2023-01-26T09:10:14;102731.56;;;6.91;82.63
38630;BME280;24384;51.988;4.644;2023-01-26T09:12:39;102726.06;;;7.45;77.74
38630;BME280;24384;51.988;4.644;2023-01-26T09:15:05;102744.66;;;6.90;78.38
38630;BME280;24384;51.988;4.644;2023-01-26T09:17:31;102752.50;;;6.88;77.35
38630;BME280;24384;51.988;4.644;2023-01-26T09:19:56;102756.25;;;6.41;79.15
38630;BME280;24384;51.988;4.644;2023-01-26T09:22:22;102759.44;;;6.22;79.30
38630;BME280;24384;51.988;4.644;2023-01-26T09:24:47;102758.50;;;6.18;79.65
38630;BME280;24384;51.988;4.644;2023-01-26T09:27:12;102759.03;;;5.97;80.61
38630;BME280;24384;51.988;4.644;2023-01-26T09:29:37;102763.84;;;5.76;81.94
38630;BME280;24384;51.988;4.644;2023-01-26T09:32:03;102766.31;;;5.66;82.49
38630;BME280;24384;51.988;4.644;2023-01-26T09:34:28;102772.41;;;5.67;82.53
38630;BME280;24384;51.988;4.644;2023-01-26T09:36:56;102767.03;;;5.59;83.71
38630;BME280;24384;51.988;4.644;2023-01-26T09:39:21;102774.78;;;5.53;83.81
38630;BME280;24384;51.988;4.644;2023-01-26T09:42:19;102770.44;;;5.53;83.31
38630;BME280;24384;51.988;4.644;2023-01-26T09:48:04;102765.13;;;5.49;84.05
38630;BME280;24384;51.988;4.644;2023-01-26T09:50:54;102764.50;;;5.16;85.70
38630;BME280;24384;51.988;4.644;2023-01-26T09:53:47;102768.31;;;5.34;85.52
38630;BME280;24384;51.988;4.644;2023-01-26T09:56:18;102768.66;;;5.51;84.91
38630;BME280;24384;51.988;4.644;2023-01-26T09:58:51;102763.03;;;5.77;84.83
38630;BME280;24384;51.988;4.644;2023-01-26T10:01:39;102773.16;;;6.07;84.17
38630;BME280;24384;51.988;4.644;2023-01-26T10:06:36;102773.06;;;6.57;81.18
38630;BME280;24384;51.988;4.644;2023-01-26T10:09:13;102771.81;;;6.95;80.47
38630;BME280;24384;51.988;4.644;2023-01-26T10:11:43;102766.31;;;7.47;78.90
38630;BME280;24384;51.988;4.644;2023-01-26T10:14:14;102767.28;;;7.58;77.48
38630;BME280;24384;51.988;4.644;2023-01-26T10:16:43;102766.16;;;8.23;74.60
38630;BME280;24384;51.988;4.644;2023-01-26T10:19:17;102767.34;;;8.72;74.14
38630;BME280;24384;51.988;4.644;2023-01-26T10:21:48;102757.75;;;8.85;72.93
38630;BME280;24384;51.988;4.644;2023-01-26T10:24:19;102760.56;;;9.31;71.99
38630;BME280;24384;51.988;4.644;2023-01-26T10:26:46;102760.63;;;10.56;67.30
38630;BME280;24384;51.988;4.644;2023-01-26T10:29:13;102757.88;;;10.95;67.00
38630;BME280;24384;51.988;4.644;2023-01-26T10:31:43;102757.81;;;12.34;63.46
38630;BME280;24384;51.988;4.644;2023-01-26T10:34:24;102750.78;;;13.73;58.36
38630;BME280;24384;51.988;4.644;2023-01-26T10:36:52;102749.50;;;14.47;54.69
38630;BME280;24384;51.988;4.644;2023-01-26T10:39:20;102752.00;;;15.42;50.84
38630;BME280;24384;51.988;4.644;2023-01-26T10:42:00;102755.75;;;16.41;47.91
38630;BME280;24384;51.988;4.644;2023-01-26T10:44:33;102747.44;;;16.83;47.29
38630;BME280;24384;51.988;4.644;2023-01-26T10:47:13;102743.41;;;17.02;45.71
38630;BME280;24384;51.988;4.644;2023-01-26T10:49:39;102745.25;;;17.56;45.05
38630;BME280;24384;51.988;4.644;2023-01-26T10:52:21;102742.47;;;17.87;43.35
38630;BME280;24384;51.988;4.644;2023-01-26T10:54:48;102745.78;;;17.96;45.09
38630;BME280;24384;51.988;4.644;2023-01-26T11:02:52;102741.66;;;18.88;40.86
38630;BME280;24384;51.988;4.644;2023-01-26T11:05:23;102747.06;;;18.36;41.21
38630;BME280;24384;51.988;4.644;2023-01-26T11:07:53;102740.94;;;19.28;40.20
38630;BME280;24384;51.988;4.644;2023-01-26T11:10:34;102740.56;;;19.60;39.22
38630;BME280;24384;51.988;4.644;2023-01-26T11:13:17;102740.09;;;19.50;38.47
38630;BME280;24384;51.988;4.644;2023-01-26T11:16:00;102729.81;;;19.39;39.47
38630;BME280;24384;51.988;4.644;2023-01-26T11:21:14;102718.63;;;21.69;33.21
38630;BME280;24384;51.988;4.644;2023-01-26T11:24:02;102724.38;;;20.67;35.70
38630;BME280;24384;51.988;4.644;2023-01-26T11:32:30;102712.97;;;21.19;34.09
38630;BME280;24384;51.988;4.644;2023-01-26T11:43:50;102716.81;;;21.52;33.15
38630;BME280;24384;51.988;4.644;2023-01-26T11:49:17;102707.69;;;21.18;33.99
38630;BME280;24384;51.988;4.644;2023-01-26T11:57:22;102700.84;;;20.34;33.72
38630;BME280;24384;51.988;4.644;2023-01-26T12:00:02;102693.44;;;20.39;33.53
38630;BME280;24384;51.988;4.644;2023-01-26T12:02:36;102698.91;;;19.54;35.75
38630;BME280;24384;51.988;4.644;2023-01-26T12:05:12;102705.28;;;18.58;36.06
38630;BME280;24384;51.988;4.644;2023-01-26T12:07:55;102708.47;;;17.11;38.75
38630;BME280;24384;51.988;4.644;2023-01-26T12:10:29;102707.31;;;15.92;42.51
38630;BME280;24384;51.988;4.644;2023-01-26T12:13:03;102699.06;;;14.92;45.46
38630;BME280;24384;51.988;4.644;2023-01-26T12:15:36;102703.25;;;14.59;45.94
38630;BME280;24384;51.988;4.644;2023-01-26T12:18:35;102701.06;;;13.87;47.83
38630;BME280;24384;51.988;4.644;2023-01-26T12:21:07;102701.16;;;13.22;49.33
38630;BME280;24384;51.988;4.644;2023-01-26T12:23:46;102705.06;;;13.58;50.47
38630;BME280;24384;51.988;4.644;2023-01-26T12:26:20;102698.81;;;13.64;50.14
38630;BME280;24384;51.988;4.644;2023-01-26T12:31:30;102691.44;;;12.54;53.63
38630;BME280;24384;51.988;4.644;2023-01-26T12:33:58;102691.06;;;12.09;54.19
38630;BME280;24384;51.988;4.644;2023-01-26T12:36:57;102685.78;;;12.09;55.18
38630;BME280;24384;51.988;4.644;2023-01-26T12:39:33;102678.00;;;12.72;54.27
38630;BME280;24384;51.988;4.644;2023-01-26T12:44:32;102678.75;;;14.46;48.24
38630;BME280;24384;51.988;4.644;2023-01-26T12:49:56;102673.16;;;14.61;46.46
38630;BME280;24384;51.988;4.644;2023-01-26T12:55:02;102664.69;;;15.60;42.92
38630;BME280;24384;51.988;4.644;2023-01-26T12:57:35;102657.44;;;14.49;44.87
38630;BME280;24384;51.988;4.644;2023-01-26T13:00:06;102665.28;;;14.10;47.51
38630;BME280;24384;51.988;4.644;2023-01-26T13:02:44;102660.72;;;13.67;49.13
38630;BME280;24384;51.988;4.644;2023-01-26T13:05:26;102660.03;;;12.98;50.77
38630;BME280;24384;51.988;4.644;2023-01-26T13:07:52;102662.56;;;12.34;53.63
38630;BME280;24384;51.988;4.644;2023-01-26T13:10:23;102664.78;;;11.89;54.75
38630;BME280;24384;51.988;4.644;2023-01-26T13:15:21;102659.16;;;11.22;54.90
38630;BME280;24384;51.988;4.644;2023-01-26T13:17:51;102660.09;;;11.11;55.64
38630;BME280;24384;51.988;4.644;2023-01-26T13:26:18;102661.75;;;11.28;54.87
38630;BME280;24384;51.988;4.644;2023-01-26T13:28:45;102661.09;;;10.90;55.97
38630;BME280;24384;51.988;4.644;2023-01-26T13:31:11;102662.97;;;10.67;57.42
38630;BME280;24384;51.988;4.644;2023-01-26T13:33:38;102677.19;;;10.35;55.82
38630;BME280;24384;51.988;4.644;2023-01-26T13:36:11;102682.47;;;10.09;56.33
38630;BME280;24384;51.988;4.644;2023-01-26T13:38:43;102686.88;;;9.91;57.45
38630;BME280;24384;51.988;4.644;2023-01-26T13:41:19;102678.97;;;9.70;58.84
38630;BME280;24384;51.988;4.644;2023-01-26T13:44:05;102680.75;;;9.72;58.73
38630;BME280;24384;51.988;4.644;2023-01-26T13:46:41;102678.09;;;9.69;58.32
38630;BME280;24384;51.988;4.644;2023-01-26T13:49:25;102674.59;;;9.62;58.89
38630;BME280;24384;51.988;4.644;2023-01-26T13:51:51;102686.00;;;9.58;59.72
38630;BME280;24384;51.988;4.644;2023-01-26T13:54:17;102678.94;;;9.34;61.66
38630;BME280;24384;51.988;4.644;2023-01-26T13:56:59;102678.09;;;9.44;61.81
38630;BME280;24384;51.988;4.644;2023-01-26T13:59:24;102677.22;;;9.35;63.38
38630;BME280;24384;51.988;4.644;2023-01-26T14:01:52;102672.81;;;9.34;63.68
38630;BME280;24384;51.988;4.644;2023-01-26T14:04:26;102671.03;;;9.32;64.70
38630;BME280;24384;51.988;4.644;2023-01-26T14:07:15;102681.56;;;9.20;64.67
38630;BME280;24384;51.988;4.644;2023-01-26T14:09:52;102681.53;;;9.11;65.97
38630;BME280;24384;51.988;4.644;2023-01-26T14:12:24;102685.06;;;9.13;66.11
38630;BME280;24384;51.988;4.644;2023-01-26T14:14:54;102674.50;;;9.01;66.82